M I D A S
Marine Information and Data Acquisition System
Tripno 1098 of the Zeeleeuw from 2006-03-21 08:03:09 to 2006-03-21 13:01:36
Back to CruiseResearch ActivitiesStationsMapUnderway DataData graphs

EquipmentUnitsComment
TimeDGPSUTC
LatitudeDGPSDM.mWGS84
LongitudeDGPSDM.mWGS84
HeadingGyrodeg 
SOGDGPSknotsSpeed over ground
COGDGPSdegCourse over ground
DepthEcho soundermeters200 kHz
Missing or incorrect values are displayed as -999
Navigation data collected by the RV Zeeleeuw from 2006-03-21 07:48:32 to 2006-03-21 13:15:32
Time Latitude Longitude Heading SOG COG Depth
2006-03-21 07:49:37 51°13.6 2°56.095 125.8 -999 46 7.3
2006-03-21 07:50:37 51°13.599 2°56.095 125.7 -999 48 6.5
2006-03-21 07:51:37 51°13.599 2°56.095 125.7 0.1 195 6.5
2006-03-21 07:52:37 51°13.599 2°56.095 125.6 -999 129 6.5
2006-03-21 07:53:37 51°13.597 2°56.094 125.7 -999 254 6.5
2006-03-21 07:54:37 51°13.595 2°56.094 125.8 0.1 183 6.9
2006-03-21 07:55:37 51°13.595 2°56.094 125.9 -999 55 6.7
2006-03-21 07:56:37 51°13.593 2°56.097 126.2 -999 312 6.5
2006-03-21 07:57:37 51°13.592 2°56.097 126.5 -999 26 6.7
2006-03-21 07:58:37 51°13.594 2°56.098 126.2 0.1 173 6.4
2006-03-21 07:59:37 51°13.595 2°56.098 125.8 -999 210 6.4
2006-03-21 08:00:37 51°13.596 2°56.097 125.9 -999 191 6.4
2006-03-21 08:01:37 51°13.596 2°56.097 125.9 -999 238 6.4
2006-03-21 08:02:37 51°13.596 2°56.097 122.5 0.1 176 6.9
2006-03-21 08:03:37 51°13.599 2°56.082 112.8 1.5 291 7.9
2006-03-21 08:04:37 51°13.615 2°56.023 116.9 3.1 294 -999
2006-03-21 08:05:37 51°13.641 2°55.931 120.8 4.2 295 -999
2006-03-21 08:06:37 51°13.679 2°55.832 132.8 5 307 -999
2006-03-21 08:07:37 51°13.723 2°55.74 136.1 2.8 306 -999
2006-03-21 08:08:37 51°13.724 2°55.748 96 1.1 88 4.8
2006-03-21 08:09:37 51°13.72 2°55.723 80.6 1.6 260 -999
2006-03-21 08:10:37 51°13.728 2°55.722 39.7 1 24 -999
2006-03-21 08:11:37 51°13.72 2°55.708 21.7 0.5 256 -999
2006-03-21 08:12:37 51°13.763 2°55.678 341.8 5.1 336 -999
2006-03-21 08:13:37 51°13.871 2°55.6 339.9 8.2 335 -999
2006-03-21 08:14:37 51°14.001 2°55.505 342.2 8.8 337 -999
2006-03-21 08:15:37 51°14.126 2°55.418 340.3 8.6 334 -999
2006-03-21 08:16:37 51°14.25 2°55.281 321.9 9.3 316 -999
2006-03-21 08:17:37 51°14.337 2°55.106 313.5 7.6 309 -999
2006-03-21 08:18:37 51°14.426 2°54.946 324.3 9.3 314 9.1
2006-03-21 08:19:37 51°14.565 2°54.771 336.1 11.6 323 8.7
2006-03-21 08:20:37 51°14.729 2°54.583 336.7 12.4 325 8.5
2006-03-21 08:21:37 51°14.898 2°54.39 336.2 12.4 324 8.6
2006-03-21 08:22:37 51°15.067 2°54.203 335.9 12.3 323 7.9
2006-03-21 08:23:37 51°15.24 2°54.021 341.5 12.5 329 8.7
2006-03-21 08:24:37 51°15.416 2°53.847 340.4 12.2 327 8.9
2006-03-21 08:25:37 51°15.591 2°53.671 340.8 12.5 328 9.7
2006-03-21 08:26:37 51°15.765 2°53.492 339.6 12.5 327 10.3
2006-03-21 08:27:37 51°15.939 2°53.312 339.8 12.5 327 10.8
2006-03-21 08:28:37 51°16.117 2°53.142 341.1 12.4 328 10.8
2006-03-21 08:29:37 51°16.298 2°52.993 345.8 12.4 334 11.4
2006-03-21 08:30:37 51°16.482 2°52.847 344.9 12.6 333 11.2
2006-03-21 08:31:37 51°16.67 2°52.716 349.9 12.2 339 10.3
2006-03-21 08:32:37 51°16.864 2°52.606 350.7 12.5 341 8.9
2006-03-21 08:33:37 51°17.061 2°52.518 356.5 12.2 346 9
2006-03-21 08:34:37 51°17.258 2°52.44 357.5 12.2 348 9.4
2006-03-21 08:35:37 51°17.459 2°52.401 6.5 12.1 357 9.7
2006-03-21 08:36:37 51°17.658 2°52.385 9.4 12 1 9.6
2006-03-21 08:37:37 51°17.858 2°52.401 13.9 12.1 5 9.8
2006-03-21 08:38:37 51°18.052 2°52.437 15.9 11.8 6 9.8
2006-03-21 08:39:36 51°18.24 2°52.488 21.5 11.6 11 10.1
2006-03-21 08:40:37 51°18.431 2°52.558 25.3 11.5 16 10.6
2006-03-21 08:41:37 51°18.619 2°52.639 25 11.9 14 10.7
2006-03-21 08:42:37 51°18.806 2°52.724 25.2 11.7 15 11.1
2006-03-21 08:43:37 51°18.99 2°52.827 28.4 11.4 19 11.6
2006-03-21 08:44:37 51°19.156 2°52.973 43.7 11.6 37 12
2006-03-21 08:45:37 51°19.311 2°53.151 42.8 11.5 35 12.2
2006-03-21 08:46:37 51°19.46 2°53.336 45.8 11.2 39 12.4
2006-03-21 08:47:37 51°19.609 2°53.524 45.9 11.3 40 12.8
2006-03-21 08:48:37 51°19.758 2°53.712 45.5 11.5 38 13
2006-03-21 08:49:37 51°19.909 2°53.898 45.2 11.6 37 13.4
2006-03-21 08:50:37 51°20.062 2°54.085 45.7 11.5 37 13.7
2006-03-21 08:51:37 51°20.214 2°54.27 45.1 11.5 37 13.8
2006-03-21 08:52:37 51°20.37 2°54.438 37 11.6 23 14.3
2006-03-21 08:53:37 51°20.555 2°54.543 29.6 11.6 20 14.8
2006-03-21 08:54:37 51°20.747 2°54.583 14.3 11.9 3 15.3
2006-03-21 08:55:37 51°20.948 2°54.609 16.1 12.1 5 15.7
2006-03-21 08:56:37 51°21.145 2°54.636 16.3 12.1 5 15.9
2006-03-21 08:57:37 51°21.343 2°54.665 16.7 12 4 16
2006-03-21 08:58:37 51°21.546 2°54.697 17.4 12.2 6 16.3
2006-03-21 08:59:37 51°21.746 2°54.731 17.9 12 6 16.2
2006-03-21 09:00:37 51°21.946 2°54.763 17.3 12.1 6 16.5
2006-03-21 09:01:37 51°22.147 2°54.795 17 12.1 6 17.9
2006-03-21 09:02:37 51°22.347 2°54.825 18 11.8 7 17.4
2006-03-21 09:03:37 51°22.533 2°54.902 37 11.4 28 18
2006-03-21 09:04:37 51°22.676 2°55.105 54 11.1 47 18.3
2006-03-21 09:05:37 51°22.805 2°55.321 53.7 11.4 46 18
2006-03-21 09:06:37 51°22.935 2°55.543 54.3 11.8 45 18.3
2006-03-21 09:07:37 51°23.065 2°55.766 54.4 11.4 46 18.1
2006-03-21 09:08:37 51°23.196 2°55.989 53.2 11.6 46 18.5
2006-03-21 09:09:37 51°23.321 2°56.214 54.9 11.3 48 18.6
2006-03-21 09:10:37 51°23.448 2°56.439 55.4 11.4 48 18.5
2006-03-21 09:11:37 51°23.572 2°56.666 56.7 11.5 50 17.8
2006-03-21 09:12:37 51°23.69 2°56.901 57.9 11.2 52 17
2006-03-21 09:13:37 51°23.808 2°57.137 58 11.3 51 13.6
2006-03-21 09:14:37 51°23.927 2°57.374 57.2 11.5 50 15.7
2006-03-21 09:15:37 51°24.051 2°57.604 54.4 11.3 47 15.7
2006-03-21 09:16:37 51°24.179 2°57.834 55.3 11.5 49 14.8
2006-03-21 09:17:37 51°24.305 2°58.063 55.3 11.5 49 16.1
2006-03-21 09:18:37 51°24.431 2°58.291 54.4 11.5 48 16
2006-03-21 09:19:37 51°24.564 2°58.51 53.2 11.4 46 16.7
2006-03-21 09:20:37 51°24.697 2°58.727 52.9 11.5 46 17.1
2006-03-21 09:21:37 51°24.831 2°58.944 53.5 11.5 47 18
2006-03-21 09:22:37 51°24.964 2°59.169 52.8 11.7 45 17.2
2006-03-21 09:23:37 51°25.097 2°59.397 54.2 11.8 47 16.8
2006-03-21 09:24:37 51°25.231 2°59.622 52.9 11.7 47 16.6
2006-03-21 09:25:37 51°25.366 2°59.852 53.7 11.9 47 16.5
2006-03-21 09:26:37 51°25.499 3°0.081 52.4 11.8 48 15.8
2006-03-21 09:27:37 51°25.632 3°0.312 53.6 11.9 47 14.9
2006-03-21 09:28:37 51°25.767 3°0.54 50.3 11.8 45 13.7
2006-03-21 09:29:37 51°25.909 3°0.751 48.4 11.5 44 12.5
2006-03-21 09:30:37 51°26.05 3°0.961 48.5 11.6 43 10.6
2006-03-21 09:31:37 51°26.19 3°1.176 49 11.5 43 11.7
2006-03-21 09:32:37 51°26.324 3°1.395 51.4 11.4 46 11.5
2006-03-21 09:33:37 51°26.457 3°1.613 51.5 11.6 46 11.3
2006-03-21 09:34:37 51°26.591 3°1.828 51.8 11.2 45 10.8
2006-03-21 09:35:37 51°26.724 3°2.04 53.1 11.3 48 11.3
2006-03-21 09:36:37 51°26.856 3°2.254 50.8 11.4 45 12.8
2006-03-21 09:37:37 51°26.989 3°2.471 51.4 11.5 46 13.3
2006-03-21 09:38:37 51°27.119 3°2.687 52.2 11.4 45 13
2006-03-21 09:39:37 51°27.249 3°2.902 51.4 10.8 47 9.9
2006-03-21 09:40:37 51°27.381 3°3.115 51.5 11.5 45 13.1
2006-03-21 09:41:37 51°27.514 3°3.335 51.1 11.6 45 15.4
2006-03-21 09:42:37 51°27.649 3°3.552 51.1 11.7 46 16.6
2006-03-21 09:43:37 51°27.782 3°3.77 52.2 11.3 47 16.9
2006-03-21 09:44:37 51°27.913 3°3.987 51.8 11.4 45 16.9
2006-03-21 09:45:37 51°28.049 3°4.207 51.5 11.4 47 17
2006-03-21 09:46:37 51°28.185 3°4.424 51.2 11.5 45 17.6
2006-03-21 09:47:37 51°28.315 3°4.639 51 11.2 47 17.4
2006-03-21 09:48:37 51°28.449 3°4.852 51.3 11.3 44 17.7
2006-03-21 09:49:37 51°28.584 3°5.068 50.8 11.3 46 17.7
2006-03-21 09:50:37 51°28.713 3°5.285 52 10.9 48 18
2006-03-21 09:51:37 51°28.828 3°5.522 60 11.2 59 17.7
2006-03-21 09:52:37 51°28.932 3°5.774 60.9 11.3 56 17.4
2006-03-21 09:53:37 51°29.038 3°6.028 61.5 11.5 56 17.2
2006-03-21 09:54:36 51°29.142 3°6.276 60.3 11.2 55 17.2
2006-03-21 09:55:36 51°29.245 3°6.528 60.2 11.4 56 17.6
2006-03-21 09:56:36 51°29.353 3°6.779 60.9 11.4 56 17.4
2006-03-21 09:57:37 51°29.461 3°7.036 60.4 11.3 56 17.6
2006-03-21 09:58:37 51°29.566 3°7.287 60.2 11.4 57 17.5
2006-03-21 09:59:36 51°29.668 3°7.535 60.8 11.4 56 17.5
2006-03-21 10:00:37 51°29.776 3°7.792 60.7 11.6 57 17
2006-03-21 10:01:37 51°29.882 3°8.048 60.3 11.3 56 17.4
2006-03-21 10:02:37 51°29.988 3°8.3 60.2 11.5 57 17.5
2006-03-21 10:03:37 51°30.085 3°8.561 65.7 11.3 64 17
2006-03-21 10:04:36 51°30.153 3°8.796 66.8 6.6 64 17.2
2006-03-21 10:05:36 51°30.177 3°8.894 65.6 2.7 72 17.6
2006-03-21 10:06:36 51°30.189 3°8.93 51.4 1.1 56 17.7
2006-03-21 10:07:36 51°30.195 3°8.941 59.5 0.2 272 17.4
2006-03-21 10:08:36 51°30.186 3°8.934 66.3 0.9 224 17.4
2006-03-21 10:09:36 51°30.171 3°8.938 99.9 1.4 144 17.5
2006-03-21 10:10:36 51°30.12 3°8.949 167.6 4.1 187 17.3
2006-03-21 10:11:37 51°30.047 3°8.885 214.1 5.7 213 17.3
2006-03-21 10:12:36 51°29.979 3°8.771 242.3 6.2 233 17.2
2006-03-21 10:13:37 51°29.912 3°8.637 227.1 6.6 230 17.1
2006-03-21 10:14:36 51°29.841 3°8.51 238.8 6.5 235 16.5
2006-03-21 10:15:36 51°29.772 3°8.376 228 6.5 222 16.6
2006-03-21 10:16:36 51°29.705 3°8.246 237.4 6 231 16.6
2006-03-21 10:17:36 51°29.663 3°8.153 248.2 2.4 235 16.1
2006-03-21 10:18:37 51°29.642 3°8.115 266.9 2.1 223 16.2
2006-03-21 10:19:37 51°29.622 3°8.062 284.8 3.6 252 16.6
2006-03-21 10:20:37 51°29.584 3°7.933 236.9 6.6 232 16.8
2006-03-21 10:21:36 51°29.505 3°7.788 235.5 7.5 234 15.9
2006-03-21 10:22:36 51°29.431 3°7.654 230.9 6.4 223 16.4
2006-03-21 10:23:37 51°29.361 3°7.524 236.7 6.3 232 16.4
2006-03-21 10:24:36 51°29.3 3°7.391 239.8 6.3 236 15.9
2006-03-21 10:25:37 51°29.23 3°7.269 228.1 6 225 16.4
2006-03-21 10:26:37 51°29.181 3°7.179 232.7 2.8 225 16
2006-03-21 10:27:36 51°29.154 3°7.13 234.7 2.7 233 16
2006-03-21 10:28:36 51°29.126 3°7.071 246.3 2.9 234 16
2006-03-21 10:29:37 51°29.08 3°6.966 240.1 6.3 235 16
2006-03-21 10:30:37 51°29.011 3°6.81 240.9 7.7 233 16.1
2006-03-21 10:31:37 51°28.931 3°6.611 242.4 9.6 235 16.1
2006-03-21 10:32:37 51°28.852 3°6.407 246.7 7.8 242 16.3
2006-03-21 10:33:37 51°28.791 3°6.248 240.8 6.7 235 16
2006-03-21 10:34:37 51°28.737 3°6.128 241.7 4.9 227 16.1
2006-03-21 10:35:37 51°28.708 3°6.067 241.5 2.1 219 15.8
2006-03-21 10:36:37 51°28.683 3°6.022 247.8 2.4 227 15.6
2006-03-21 10:37:37 51°28.657 3°5.969 258.5 2.8 227 15.4
2006-03-21 10:38:37 51°28.633 3°5.912 267.8 2.5 241 15.8
2006-03-21 10:39:37 51°28.616 3°5.841 294.5 3.9 268 15.3
2006-03-21 10:40:37 51°28.66 3°5.79 26.3 3 23 15.4
2006-03-21 10:41:37 51°28.674 3°5.896 71.2 3.9 77 15.6
2006-03-21 10:42:36 51°28.693 3°5.961 59.3 3 59 15.7
2006-03-21 10:43:37 51°28.729 3°6.007 38.4 1.7 21 15.9
2006-03-21 10:44:36 51°28.734 3°6.005 46.7 0.6 251 15.7
2006-03-21 10:45:37 51°28.727 3°5.985 41.8 0.6 254 15.9
2006-03-21 10:46:37 51°28.744 3°5.933 325.5 4.2 288 15.8
2006-03-21 10:47:37 51°28.72 3°5.78 244.6 7.3 234 16.1
2006-03-21 10:48:37 51°28.629 3°5.594 235.4 10.5 234 16.2
2006-03-21 10:49:37 51°28.517 3°5.35 236.7 11.6 237 16
2006-03-21 10:50:37 51°28.394 3°5.082 238.8 12.6 235 16
2006-03-21 10:51:37 51°28.268 3°4.806 238.7 12.7 236 16.5
2006-03-21 10:52:36 51°28.142 3°4.537 237.3 12.8 233 16.7
2006-03-21 10:53:36 51°28.013 3°4.268 234.8 12.9 229 16.9
2006-03-21 10:54:37 51°27.878 3°3.996 232.7 12.9 233 16.9
2006-03-21 10:55:36 51°27.745 3°3.74 233.1 12.9 229 16.7
2006-03-21 10:56:37 51°27.608 3°3.471 236.2 12.7 230 16.4
2006-03-21 10:57:37 51°27.476 3°3.204 235.6 12.7 230 14.5
2006-03-21 10:58:36 51°27.342 3°2.942 235.9 12.9 226 11.3
2006-03-21 10:59:37 51°27.204 3°2.668 235.8 13.1 229 12.3
2006-03-21 11:00:36 51°27.075 3°2.399 238.4 12.9 231 13.3
2006-03-21 11:01:37 51°26.94 3°2.123 234.6 13 230 12.6
2006-03-21 11:02:37 51°26.806 3°1.852 233.4 13.3 232 11.7
2006-03-21 11:03:37 51°26.673 3°1.578 234.5 12.9 235 12.3
2006-03-21 11:04:37 51°26.538 3°1.314 233.4 12.8 227 13.9
2006-03-21 11:05:36 51°26.408 3°1.052 235.6 12.7 231 13.5
2006-03-21 11:06:37 51°26.272 3°0.784 234.9 12.9 235 13.9
2006-03-21 11:07:36 51°26.139 3°0.528 234.9 12.8 231 14.4
2006-03-21 11:08:37 51°26.007 3°0.266 237.3 12.1 231 17.1
2006-03-21 11:09:37 51°25.871 3°0.026 229.9 12.2 225 18.5
2006-03-21 11:10:37 51°25.729 2°59.792 229.5 12.4 225 19.2
2006-03-21 11:11:37 51°25.575 2°59.581 222.4 12.1 220 19.2
2006-03-21 11:12:36 51°25.418 2°59.382 222 12.2 221 18.9
2006-03-21 11:13:37 51°25.258 2°59.17 223.1 12.2 219 18.5
2006-03-21 11:14:37 51°25.102 2°58.964 220.6 12.2 220 18.1
2006-03-21 11:15:37 51°24.945 2°58.76 223.2 12.1 219 18.1
2006-03-21 11:16:37 51°24.791 2°58.558 223.6 12 219 18.4
2006-03-21 11:17:36 51°24.641 2°58.361 223.3 12 216 17.5
2006-03-21 11:18:36 51°24.489 2°58.159 223.6 12 218 16.8
2006-03-21 11:19:37 51°24.35 2°57.95 235.2 10.8 227 15.5
2006-03-21 11:20:37 51°24.249 2°57.724 242.8 10.5 235 15.2
2006-03-21 11:21:37 51°24.149 2°57.496 241.7 10.5 233 15.8
2006-03-21 11:22:37 51°24.049 2°57.271 242 10.5 233 16.5
2006-03-21 11:23:37 51°23.949 2°57.046 240.4 10.5 231 13.6
2006-03-21 11:24:37 51°23.847 2°56.82 240.6 10.6 238 15.2
2006-03-21 11:25:36 51°23.746 2°56.598 240.7 10.4 238 16.6
2006-03-21 11:26:36 51°23.645 2°56.375 241.6 10.4 236 18.3
2006-03-21 11:27:36 51°23.551 2°56.144 244.5 10.2 238 15.4
2006-03-21 11:28:36 51°23.458 2°55.917 243.2 10.1 239 17
2006-03-21 11:29:37 51°23.363 2°55.672 246.1 10.7 239 18.4
2006-03-21 11:30:37 51°23.27 2°55.421 243.8 11.5 239 18.3
2006-03-21 11:31:37 51°23.168 2°55.147 243.7 12.2 241 19
2006-03-21 11:32:37 51°23.058 2°54.855 247.4 13.1 238 19
2006-03-21 11:33:37 51°22.951 2°54.55 246 13.1 242 20
2006-03-21 11:34:37 51°22.843 2°54.25 245.5 13.2 238 18.2
2006-03-21 11:35:36 51°22.737 2°53.965 244.8 10.5 241 22.1
2006-03-21 11:36:37 51°22.675 2°53.779 250.7 6.2 239 22.5
2006-03-21 11:37:36 51°22.629 2°53.66 250 5 231 22.2
2006-03-21 11:38:37 51°22.589 2°53.558 244.6 4.1 231 22.4
2006-03-21 11:39:36 51°22.552 2°53.493 222.3 1.9 222 22.1
2006-03-21 11:40:37 51°22.546 2°53.476 227.1 0.9 231 -999
2006-03-21 11:41:36 51°22.53 2°53.448 232.1 1.9 226 22.4
2006-03-21 11:42:36 51°22.483 2°53.337 248.5 6.5 245 22.7
2006-03-21 11:43:37 51°22.449 2°53.202 271.4 4.8 254 22.9
2006-03-21 11:44:37 51°22.42 2°53.053 265.8 7.1 253 23
2006-03-21 11:45:37 51°22.368 2°52.871 246.2 6.7 237 23.3
2006-03-21 11:46:37 51°22.334 2°52.743 272.3 4 255 23.3
2006-03-21 11:47:38 51°22.309 2°52.711 275.4 1.5 163 23.6
2006-03-21 11:48:38 51°22.282 2°52.704 275.4 1.4 204 23.7
2006-03-21 11:49:37 51°22.255 2°52.67 276.3 3.5 247 23.5
2006-03-21 11:50:37 51°22.225 2°52.536 252.1 6.6 242 23.6
2006-03-21 11:51:37 51°22.158 2°52.375 237.3 7.8 235 23.6
2006-03-21 11:52:38 51°22.086 2°52.198 245.3 7.3 239 23.3
2006-03-21 11:53:37 51°22.045 2°52.092 241.9 2.6 231 23.7
2006-03-21 11:54:38 51°22.026 2°52.076 238.9 1.8 200 -999
2006-03-21 11:55:37 51°22 2°52.039 251.8 2.4 223 23.9
2006-03-21 11:56:38 51°21.969 2°51.955 261.2 5 247 23.7
2006-03-21 11:57:37 51°21.927 2°51.812 247 6.6 241 23.8
2006-03-21 11:58:37 51°21.855 2°51.663 236.5 7.4 229 23.9
2006-03-21 11:59:38 51°21.778 2°51.528 226.3 5.7 225 23.7
2006-03-21 12:00:37 51°21.745 2°51.474 250.9 1 217 23.8
2006-03-21 12:01:37 51°21.723 2°51.445 272.4 1.8 223 23.8
2006-03-21 12:02:37 51°21.697 2°51.41 286.9 2 222 23.7
2006-03-21 12:03:37 51°21.665 2°51.4 285.5 2.1 193 23.7
2006-03-21 12:04:37 51°21.638 2°51.38 278.4 1.8 211 23.9
2006-03-21 12:05:37 51°21.607 2°51.302 248.9 5.1 238 23.9
2006-03-21 12:06:37 51°21.548 2°51.164 244.6 6.8 237 23.7
2006-03-21 12:07:38 51°21.473 2°51.009 234.7 7.4 230 23.4
2006-03-21 12:08:37 51°21.391 2°50.861 231.4 7.5 230 23.3
2006-03-21 12:09:37 51°21.343 2°50.776 220.1 2 222 23.3
2006-03-21 12:10:38 51°21.333 2°50.755 218.2 1.4 236 -999
2006-03-21 12:11:38 51°21.311 2°50.72 215.5 2.2 225 -999
2006-03-21 12:12:37 51°21.269 2°50.664 214.6 4.2 216 23.3
2006-03-21 12:13:37 51°21.21 2°50.575 236.1 5.1 232 23.2
2006-03-21 12:14:37 51°21.148 2°50.478 225.6 5.4 224 23.1
2006-03-21 12:15:37 51°21.087 2°50.366 235.1 5.8 234 23
2006-03-21 12:16:37 51°21.028 2°50.253 248.2 5.1 238 23.2
2006-03-21 12:17:37 51°20.999 2°50.19 249.5 1.6 215 23.3
2006-03-21 12:18:37 51°20.972 2°50.157 256 2.3 215 23.2
2006-03-21 12:19:38 51°20.945 2°50.109 271.4 3 232 23.2
2006-03-21 12:20:37 51°20.905 2°49.996 249.6 6.2 240 23.1
2006-03-21 12:21:37 51°20.823 2°49.871 218.7 7.3 218 23.1
2006-03-21 12:22:37 51°20.719 2°49.751 217 7.9 217 22.8
2006-03-21 12:23:37 51°20.61 2°49.631 218.8 7.6 221 22.6
2006-03-21 12:24:37 51°20.552 2°49.547 217 2.7 224 22.6
2006-03-21 12:25:38 51°20.54 2°49.52 222.1 1.1 222 -999
2006-03-21 12:26:38 51°20.52 2°49.48 219.8 2.3 227 -999
2006-03-21 12:27:37 51°20.47 2°49.424 189.9 5.7 197 22.6
2006-03-21 12:28:37 51°20.362 2°49.482 139.3 9.5 147 22
2006-03-21 12:29:37 51°20.191 2°49.657 143.7 12.8 145 19.8
2006-03-21 12:30:38 51°20.007 2°49.841 142.2 12.1 144 -999
2006-03-21 12:31:38 51°19.822 2°50.019 147 12.9 150 15.2
2006-03-21 12:32:38 51°19.647 2°50.18 145.9 10.9 151 -999
2006-03-21 12:33:38 51°19.5 2°50.312 149.8 10 155 11.1
2006-03-21 12:34:37 51°19.343 2°50.456 147.6 12.5 150 12.4
2006-03-21 12:35:38 51°19.151 2°50.626 148.4 12.9 154 14
2006-03-21 12:36:37 51°18.963 2°50.792 146.2 12.9 144 14.7
2006-03-21 12:37:37 51°18.771 2°50.966 147.9 13.3 149 14.5
2006-03-21 12:38:37 51°18.579 2°51.137 146.7 13.1 151 13.9
2006-03-21 12:39:37 51°18.388 2°51.315 147 13.1 150 13
2006-03-21 12:40:38 51°18.197 2°51.493 146.6 12.5 148 11.9
2006-03-21 12:41:37 51°18.016 2°51.678 148.1 13.8 149 10.6
2006-03-21 12:42:38 51°17.827 2°51.866 147.7 13.5 150 10.1
2006-03-21 12:43:37 51°17.64 2°52.038 149.5 13.1 149 10.4
2006-03-21 12:44:38 51°17.439 2°52.199 155.2 13.8 157 10.3
2006-03-21 12:45:37 51°17.235 2°52.325 162.2 13.5 163 10.2
2006-03-21 12:46:37 51°17.033 2°52.47 153.1 13.6 154 9.7
2006-03-21 12:47:37 51°16.835 2°52.631 152.5 12.9 153 9.6
2006-03-21 12:48:37 51°16.634 2°52.786 154 13.7 153 11.2
2006-03-21 12:49:37 51°16.435 2°52.943 154 13.1 154 11.8
2006-03-21 12:50:37 51°16.241 2°53.106 150.7 13.2 155 11.9
2006-03-21 12:51:38 51°16.046 2°53.272 152.3 13.4 153 11.5
2006-03-21 12:52:37 51°15.915 2°53.369 148 7.9 154 11.5
2006-03-21 12:53:38 51°15.768 2°53.493 144.4 11.1 146 11.1
2006-03-21 12:54:37 51°15.592 2°53.67 144.8 13.1 149 10.3
2006-03-21 12:55:38 51°15.403 2°53.844 146.4 12.5 149 10
2006-03-21 12:56:37 51°15.226 2°54.031 139.4 13 144 9.2
2006-03-21 12:57:37 51°15.042 2°54.208 148.1 12.8 151 8.7
2006-03-21 12:58:37 51°14.861 2°54.395 143.1 12.7 146 9.2
2006-03-21 12:59:37 51°14.685 2°54.591 141.1 12.8 142 9.6
2006-03-21 13:00:37 51°14.515 2°54.798 137.4 13.4 140 9.6
2006-03-21 13:01:37 51°14.371 2°55.035 129.8 12.2 129 10
2006-03-21 13:02:38 51°14.258 2°55.27 137.1 9.7 137 -999
2006-03-21 13:03:38 51°14.133 2°55.404 154.9 8.2 153 -999
2006-03-21 13:04:38 51°14.03 2°55.482 155.3 6.1 154 -999
2006-03-21 13:05:38 51°13.941 2°55.545 157.4 5.6 156 -999
2006-03-21 13:06:38 51°13.861 2°55.604 155.4 5 154 -999
2006-03-21 13:07:38 51°13.791 2°55.663 147.5 4.6 145 -999
2006-03-21 13:08:38 51°13.735 2°55.742 135.8 4.5 135 -999
2006-03-21 13:09:38 51°13.686 2°55.829 130.1 4.4 130 -999
2006-03-21 13:10:38 51°13.644 2°55.924 120.2 4.3 120 -999
2006-03-21 13:11:36 51°13.617 2°56.01 114.3 3.2 113 9.6
2006-03-21 13:12:38 51°13.605 2°56.069 109.9 1.5 106 8.9
2006-03-21 13:13:37 51°13.599 2°56.089 122.6 0.2 150 8.6
2006-03-21 13:14:37 51°13.599 2°56.089 125.8 0.1 64 8.4